Time;durP1;ratioP1;P1;durP2;ratioP2;P2;SDS_P1;SDS_P2;PMS_P1;PMS_P2;Temp;Humidity;BMP_temperature;BMP_pressure;BME280_temperature;BME280_humidity;BME280_pressure;Samples;Min_cycle;Max_cycle;Signal;HPM_P1;HPM_P2
2023/05/17 00:00:12;;;;;;;2.92;1.00;;;;;;;;;;5032911;28;20456;-88
2023/05/17 00:02:38;;;;;;;2.35;1.00;;;;;;;;;;5028598;28;20469;-89
2023/05/17 00:05:05;;;;;;;3.77;0.97;;;;;;;;;;5039800;28;20466;-88
2023/05/17 00:07:31;;;;;;;2.37;1.27;;;;;;;;;;5034715;28;20389;-87
2023/05/17 00:09:57;;;;;;;4.28;1.20;;;;;;;;;;5033515;28;20395;-88
2023/05/17 00:12:23;;;;;;;3.55;1.10;;;;;;;;;;5032604;28;20390;-87
2023/05/17 00:14:49;;;;;;;2.87;0.93;;;;;;;;;;5032640;28;20477;-88
2023/05/17 00:17:15;;;;;;;2.67;1.00;;;;;;;;;;5031858;28;20940;-87
2023/05/17 00:19:41;;;;;;;2.55;1.17;;;;;;;;;;5028644;28;20481;-88
2023/05/17 00:22:07;;;;;;;2.83;1.20;;;;;;;;;;5041445;28;20372;-87
2023/05/17 00:24:33;;;;;;;3.92;1.15;;;;;;;;;;5039219;28;20868;-89
2023/05/17 00:26:59;;;;;;;2.20;0.80;;;;;;;;;;5033957;28;20396;-89
2023/05/17 00:29:25;;;;;;;2.00;1.00;;;;;;;;;;5041267;28;20380;-88
2023/05/17 00:31:51;;;;;;;3.20;0.88;;;;;;;;;;5031578;28;20401;-89
2023/05/17 00:34:17;;;;;;;2.03;0.85;;;;;;;;;;5043357;28;20469;-89
2023/05/17 00:36:43;;;;;;;2.37;0.90;;;;;;;;;;5032275;28;20912;-88
2023/05/17 00:39:09;;;;;;;1.90;0.80;;;;;;;;;;5035458;28;20398;-89
2023/05/17 00:41:35;;;;;;;2.08;0.90;;;;;;;;;;5040752;28;20484;-90
2023/05/17 00:44:01;;;;;;;4.28;1.02;;;;;;;;;;5028272;28;20389;-89
2023/05/17 00:46:27;;;;;;;3.10;1.27;;;;;;;;;;5023359;28;20389;-88
2023/05/17 00:48:53;;;;;;;3.05;1.05;;;;;;;;;;5033812;28;20385;-89
2023/05/17 00:51:20;;;;;;;2.47;1.10;;;;;;;;;;5045705;28;20389;-88
2023/05/17 00:53:46;;;;;;;2.88;0.85;;;;;;;;;;5034215;28;20436;-88
2023/05/17 00:56:12;;;;;;;2.30;1.10;;;;;;;;;;5034022;28;20379;-88
2023/05/17 00:58:39;;;;;;;3.40;1.10;;;;;;;;;;5032133;28;20414;-88
2023/05/17 01:01:05;;;;;;;4.43;1.23;;;;;;;;;;5031429;28;20407;-88
2023/05/17 01:03:31;;;;;;;4.15;1.00;;;;;;;;;;5022438;28;20397;-88
2023/05/17 01:05:57;;;;;;;4.22;1.02;;;;;;;;;;5051676;28;20420;-89
2023/05/17 01:08:23;;;;;;;3.55;1.02;;;;;;;;;;5031957;28;20387;-88
2023/05/17 01:11:16;;;;;;;2.72;1.10;;;;;;;;;;5026114;28;20394;-90
2023/05/17 01:13:48;;;;;;;2.88;0.90;;;;;;;;;;5050730;28;20894;-87
2023/05/17 01:16:34;;;;;;;2.17;0.75;;;;;;;;;;5047786;28;20389;-89
2023/05/17 01:19:13;;;;;;;2.65;0.90;;;;;;;;;;5026508;28;20389;-89
2023/05/17 01:21:57;;;;;;;1.85;1.00;;;;;;;;;;5031717;28;20488;-88
2023/05/17 01:24:23;;;;;;;3.03;1.20;;;;;;;;;;5031120;28;20486;-88
2023/05/17 01:26:50;;;;;;;4.22;1.02;;;;;;;;;;5040139;28;20829;-89
2023/05/17 01:29:18;;;;;;;2.42;1.00;;;;;;;;;;5050359;28;20381;-88
2023/05/17 01:31:44;;;;;;;3.20;0.90;;;;;;;;;;5047102;28;20415;-89
2023/05/17 01:34:10;;;;;;;2.10;0.88;;;;;;;;;;5050026;28;20452;-90
2023/05/17 01:36:36;;;;;;;2.63;1.05;;;;;;;;;;5039356;28;20386;-89
2023/05/17 01:39:02;;;;;;;2.92;1.10;;;;;;;;;;5034299;28;20401;-87
2023/05/17 01:41:28;;;;;;;2.28;0.98;;;;;;;;;;5048577;28;20418;-89
2023/05/17 01:44:00;;;;;;;2.63;1.00;;;;;;;;;;5047193;28;20401;-89
2023/05/17 01:46:31;;;;;;;2.40;0.80;;;;;;;;;;5048341;28;20377;-89
2023/05/17 01:49:16;;;;;;;3.85;0.80;;;;;;;;;;5035075;28;20729;-88
2023/05/17 01:52:02;;;;;;;2.38;1.02;;;;;;;;;;5035536;28;20858;-89
2023/05/17 01:54:31;;;;;;;2.33;1.00;;;;;;;;;;5036307;28;20906;-89
2023/05/17 01:56:58;;;;;;;3.22;0.95;;;;;;;;;;5034122;28;20383;-90
2023/05/17 01:59:24;;;;;;;3.35;1.10;;;;;;;;;;5032298;28;20476;-89
2023/05/17 02:01:55;;;;;;;2.63;1.00;;;;;;;;;;5038045;28;20491;-91
2023/05/17 02:04:21;;;;;;;2.95;0.88;;;;;;;;;;5036284;28;20378;-90
2023/05/17 02:06:47;;;;;;;2.15;0.85;;;;;;;;;;5031118;28;20387;-89
2023/05/17 02:09:13;;;;;;;3.20;1.10;;;;;;;;;;5033356;28;20444;-88
2023/05/17 02:11:39;;;;;;;2.55;0.88;;;;;;;;;;5035337;28;20411;-90
2023/05/17 02:14:05;;;;;;;2.88;0.82;;;;;;;;;;5035360;28;20393;-88
2023/05/17 02:16:31;;;;;;;2.33;0.77;;;;;;;;;;5032359;28;20789;-88
2023/05/17 02:18:57;;;;;;;2.80;1.00;;;;;;;;;;5038317;28;20383;-88
2023/05/17 02:21:23;;;;;;;1.98;0.90;;;;;;;;;;5040457;28;20414;-89
2023/05/17 02:23:49;;;;;;;2.38;0.90;;;;;;;;;;5034773;28;20383;-89
2023/05/17 02:26:15;;;;;;;2.08;0.90;;;;;;;;;;5030225;28;20386;-89
2023/05/17 02:28:41;;;;;;;3.37;0.93;;;;;;;;;;5054614;28;20443;-88
2023/05/17 02:31:08;;;;;;;3.20;0.98;;;;;;;;;;5054247;28;20408;-90
2023/05/17 02:33:34;;;;;;;2.28;0.80;;;;;;;;;;5035817;28;20421;-89
2023/05/17 02:36:00;;;;;;;1.75;0.80;;;;;;;;;;5034750;28;20385;-89
2023/05/17 02:38:26;;;;;;;3.58;0.95;;;;;;;;;;5052408;28;20427;-89
2023/05/17 02:40:52;;;;;;;1.67;0.90;;;;;;;;;;5048811;28;20403;-89
2023/05/17 02:43:18;;;;;;;2.28;1.00;;;;;;;;;;5034438;28;20382;-89
2023/05/17 02:45:47;;;;;;;2.22;1.00;;;;;;;;;;5056519;28;20475;-89
2023/05/17 02:48:13;;;;;;;3.60;1.00;;;;;;;;;;5046133;28;20876;-88
2023/05/17 02:50:39;;;;;;;2.20;0.88;;;;;;;;;;5033915;28;20473;-88
2023/05/17 02:53:05;;;;;;;2.10;0.90;;;;;;;;;;5040018;28;20470;-88
2023/05/17 02:55:31;;;;;;;3.97;1.00;;;;;;;;;;5045403;28;20396;-90
2023/05/17 02:57:57;;;;;;;2.08;0.90;;;;;;;;;;5035957;28;20394;-89
2023/05/17 03:00:23;;;;;;;2.55;0.70;;;;;;;;;;5043643;28;20489;-88
2023/05/17 03:02:49;;;;;;;2.67;0.88;;;;;;;;;;5029865;28;20381;-90
2023/05/17 03:05:15;;;;;;;2.22;1.00;;;;;;;;;;5034120;28;20849;-89
2023/05/17 03:07:41;;;;;;;2.45;0.88;;;;;;;;;;5030055;28;20373;-89
2023/05/17 03:10:07;;;;;;;4.10;1.20;;;;;;;;;;5034025;28;20393;-88
2023/05/17 03:12:33;;;;;;;2.33;1.00;;;;;;;;;;5028227;28;20386;-88
2023/05/17 03:14:59;;;;;;;2.75;0.90;;;;;;;;;;5035151;28;20825;-88
2023/05/17 03:17:25;;;;;;;2.50;1.10;;;;;;;;;;5023290;28;20471;-88
2023/05/17 03:19:51;;;;;;;2.03;0.82;;;;;;;;;;5033081;28;20880;-90
2023/05/17 03:22:17;;;;;;;1.83;0.80;;;;;;;;;;5024176;28;20515;-89
2023/05/17 03:24:43;;;;;;;2.60;0.95;;;;;;;;;;5034974;28;20815;-90
2023/05/17 03:27:09;;;;;;;2.30;0.85;;;;;;;;;;5042066;28;20387;-89
2023/05/17 03:29:35;;;;;;;3.72;1.10;;;;;;;;;;5028511;28;20465;-89
2023/05/17 03:32:01;;;;;;;3.47;0.90;;;;;;;;;;5035020;28;20397;-88
2023/05/17 03:34:27;;;;;;;2.17;1.13;;;;;;;;;;5042642;28;20888;-89
2023/05/17 03:36:53;;;;;;;2.20;1.00;;;;;;;;;;5033536;28;20478;-89
2023/05/17 03:39:19;;;;;;;3.00;1.00;;;;;;;;;;5038943;28;20401;-90
2023/05/17 03:41:45;;;;;;;2.95;1.00;;;;;;;;;;5035033;28;20403;-88
2023/05/17 03:44:11;;;;;;;2.95;1.00;;;;;;;;;;5048972;28;20441;-88
2023/05/17 03:46:37;;;;;;;3.73;1.00;;;;;;;;;;5031979;28;20432;-89
2023/05/17 03:49:03;;;;;;;1.90;0.90;;;;;;;;;;5038825;28;20395;-89
2023/05/17 03:51:29;;;;;;;2.72;1.00;;;;;;;;;;5050274;28;20384;-88
2023/05/17 03:53:59;;;;;;;2.35;1.00;;;;;;;;;;5033633;28;20468;-89
2023/05/17 03:56:25;;;;;;;3.72;1.00;;;;;;;;;;5033557;28;20752;-90
2023/05/17 03:58:51;;;;;;;2.97;1.10;;;;;;;;;;5053914;28;20409;-90
2023/05/17 04:01:19;;;;;;;3.90;1.00;;;;;;;;;;5034851;28;20398;-88
2023/05/17 04:03:45;;;;;;;1.80;0.80;;;;;;;;;;5035284;28;20468;-89
2023/05/17 04:06:11;;;;;;;2.88;0.90;;;;;;;;;;5034868;28;20868;-88
2023/05/17 04:08:37;;;;;;;2.13;0.90;;;;;;;;;;5052767;28;20382;-88
2023/05/17 04:11:09;;;;;;;3.03;1.00;;;;;;;;;;5033992;28;20404;-88
2023/05/17 04:13:36;;;;;;;3.00;0.93;;;;;;;;;;5034688;28;20385;-88
2023/05/17 04:16:02;;;;;;;1.85;0.80;;;;;;;;;;5036929;28;20879;-88
2023/05/17 04:18:28;;;;;;;2.40;1.00;;;;;;;;;;5034640;28;20393;-88
2023/05/17 04:20:55;;;;;;;2.95;1.00;;;;;;;;;;5052057;28;20991;-88
2023/05/17 04:23:21;;;;;;;3.08;1.10;;;;;;;;;;5052438;28;20791;-89
2023/05/17 04:25:47;;;;;;;3.83;0.90;;;;;;;;;;5048645;28;20757;-89
2023/05/17 04:28:13;;;;;;;1.77;1.00;;;;;;;;;;5042718;28;20404;-88
2023/05/17 04:30:42;;;;;;;2.92;1.23;;;;;;;;;;5032118;28;20387;-88
2023/05/17 04:33:08;;;;;;;3.60;1.15;;;;;;;;;;5045754;28;20385;-88
2023/05/17 04:35:35;;;;;;;3.80;1.10;;;;;;;;;;5033556;28;21095;-89
2023/05/17 04:38:01;;;;;;;2.17;1.15;;;;;;;;;;5029450;28;20400;-89
2023/05/17 04:40:27;;;;;;;2.58;1.02;;;;;;;;;;5034542;28;20411;-89
2023/05/17 04:45:22;;;;;;;2.80;1.00;;;;;;;;;;5047205;28;20433;-83
2023/05/17 04:47:49;;;;;;;2.63;1.10;;;;;;;;;;5052089;28;20933;-82
2023/05/17 04:50:16;;;;;;;3.45;1.45;;;;;;;;;;5051573;28;20740;-82
2023/05/17 04:52:42;;;;;;;2.60;1.30;;;;;;;;;;5046797;28;20451;-82
2023/05/17 04:55:08;;;;;;;2.40;1.10;;;;;;;;;;5048649;28;20433;-82
2023/05/17 04:57:34;;;;;;;3.40;1.23;;;;;;;;;;5040466;28;20377;-82
2023/05/17 05:00:04;;;;;;;2.80;1.00;;;;;;;;;;5040923;28;20452;-82
2023/05/17 05:02:30;;;;;;;2.50;1.10;;;;;;;;;;5032163;28;20428;-82
2023/05/17 05:04:56;;;;;;;5.25;1.15;;;;;;;;;;5040444;28;20862;-82
2023/05/17 05:07:22;;;;;;;3.22;1.05;;;;;;;;;;5049019;28;20468;-82
2023/05/17 05:09:48;;;;;;;2.43;0.90;;;;;;;;;;5046454;28;20430;-83
2023/05/17 05:12:14;;;;;;;2.72;1.05;;;;;;;;;;5021121;28;20417;-82
2023/05/17 05:14:40;;;;;;;2.72;1.05;;;;;;;;;;5050788;28;20468;-82
2023/05/17 05:17:06;;;;;;;3.10;1.25;;;;;;;;;;5051177;28;20381;-82
2023/05/17 05:19:32;;;;;;;3.35;1.38;;;;;;;;;;5048895;28;20531;-82
2023/05/17 05:21:58;;;;;;;2.20;1.00;;;;;;;;;;5050644;28;20892;-83
2023/05/17 05:24:24;;;;;;;3.13;1.30;;;;;;;;;;5049401;28;20395;-83
2023/05/17 05:26:50;;;;;;;3.85;1.30;;;;;;;;;;5039853;28;20392;-82
2023/05/17 05:29:16;;;;;;;1.95;1.15;;;;;;;;;;5039696;28;20371;-83
2023/05/17 05:31:42;;;;;;;3.20;1.90;;;;;;;;;;5051100;28;20721;-81
2023/05/17 05:34:09;;;;;;;3.33;1.58;;;;;;;;;;5050580;28;20382;-81
2023/05/17 05:36:35;;;;;;;2.47;1.00;;;;;;;;;;5025546;28;20385;-81
2023/05/17 05:39:01;;;;;;;2.50;1.20;;;;;;;;;;5044361;28;20385;-83
2023/05/17 05:41:27;;;;;;;4.90;1.05;;;;;;;;;;5051067;28;20421;-82
2023/05/17 05:43:53;;;;;;;4.40;1.30;;;;;;;;;;5051302;28;20761;-82
2023/05/17 05:46:19;;;;;;;4.75;1.25;;;;;;;;;;5051428;28;20377;-81
2023/05/17 05:48:45;;;;;;;3.30;1.20;;;;;;;;;;5051462;28;20801;-79
2023/05/17 05:51:11;;;;;;;3.10;1.00;;;;;;;;;;5051141;28;20404;-83
2023/05/17 05:53:42;;;;;;;2.53;1.00;;;;;;;;;;5051159;28;20385;-83
2023/05/17 05:56:08;;;;;;;4.43;1.40;;;;;;;;;;5051378;28;20385;-82
2023/05/17 05:58:34;;;;;;;3.70;1.23;;;;;;;;;;5051028;28;20385;-82
2023/05/17 06:01:00;;;;;;;5.35;1.58;;;;;;;;;;5050928;28;20408;-83
2023/05/17 06:03:26;;;;;;;3.07;1.30;;;;;;;;;;5035732;28;20515;-82
2023/05/17 06:05:52;;;;;;;4.60;1.38;;;;;;;;;;5051385;28;20943;-82
2023/05/17 06:08:18;;;;;;;2.70;1.30;;;;;;;;;;5051358;28;20476;-83
2023/05/17 06:10:45;;;;;;;3.63;1.23;;;;;;;;;;5050986;28;20868;-82
2023/05/17 06:13:11;;;;;;;2.28;1.30;;;;;;;;;;5050485;28;20417;-83
2023/05/17 06:15:37;;;;;;;2.63;1.20;;;;;;;;;;5050966;28;20393;-81
2023/05/17 06:18:03;;;;;;;2.28;1.10;;;;;;;;;;5044660;28;20470;-81
2023/05/17 06:20:29;;;;;;;4.45;1.48;;;;;;;;;;5044143;28;20463;-82
2023/05/17 06:22:55;;;;;;;5.55;2.97;;;;;;;;;;5036473;28;20390;-82
2023/05/17 06:25:21;;;;;;;2.83;1.30;;;;;;;;;;5054649;28;20465;-80
2023/05/17 06:27:47;;;;;;;3.63;1.40;;;;;;;;;;5054538;28;20779;-81
2023/05/17 06:30:13;;;;;;;2.80;1.40;;;;;;;;;;5054824;28;20386;-82
2023/05/17 06:32:39;;;;;;;3.10;1.30;;;;;;;;;;5054178;28;20821;-81
2023/05/17 06:35:05;;;;;;;3.33;1.52;;;;;;;;;;5035722;28;20431;-81
2023/05/17 06:37:31;;;;;;;4.00;1.50;;;;;;;;;;5054352;28;20385;-82
2023/05/17 06:40:05;;;;;;;5.22;1.50;;;;;;;;;;5046175;28;20393;-80
2023/05/17 06:42:31;;;;;;;4.97;1.65;;;;;;;;;;5048995;28;20426;-80
2023/05/17 06:44:57;;;;;;;4.18;1.70;;;;;;;;;;5053975;28;20390;-81
2023/05/17 06:47:23;;;;;;;4.15;1.50;;;;;;;;;;5053465;28;20384;-80
2023/05/17 06:49:49;;;;;;;4.63;1.60;;;;;;;;;;5053834;28;20377;-80
2023/05/17 06:52:15;;;;;;;6.40;4.32;;;;;;;;;;5049272;28;20384;-81
2023/05/17 06:54:41;;;;;;;2.55;1.35;;;;;;;;;;5053248;28;20381;-82
2023/05/17 06:57:08;;;;;;;4.72;1.30;;;;;;;;;;5053712;28;20389;-82
2023/05/17 06:59:34;;;;;;;2.80;1.20;;;;;;;;;;5054103;28;20385;-80
2023/05/17 07:02:00;;;;;;;3.53;1.30;;;;;;;;;;5053739;28;20775;-81
2023/05/17 07:04:27;;;;;;;3.47;1.30;;;;;;;;;;5035987;28;20385;-80
2023/05/17 07:06:53;;;;;;;3.45;1.40;;;;;;;;;;5053768;28;20860;-80
2023/05/17 07:09:20;;;;;;;3.00;1.30;;;;;;;;;;5053873;28;20532;-80
2023/05/17 07:11:46;;;;;;;3.55;1.40;;;;;;;;;;5053123;28;20377;-80
2023/05/17 07:14:12;;;;;;;2.95;1.35;;;;;;;;;;5052978;28;20459;-81
2023/05/17 07:16:38;;;;;;;3.35;1.40;;;;;;;;;;5053356;28;20864;-82
2023/05/17 07:19:04;;;;;;;2.95;1.27;;;;;;;;;;5053522;28;20382;-80
2023/05/17 07:21:31;;;;;;;4.00;1.45;;;;;;;;;;5053274;28;20467;-81
2023/05/17 07:23:57;;;;;;;4.22;1.58;;;;;;;;;;5053269;28;20526;-82
2023/05/17 07:26:23;;;;;;;3.17;2.17;;;;;;;;;;5052648;28;20374;-81
2023/05/17 07:28:49;;;;;;;4.35;2.83;;;;;;;;;;5053189;28;20374;-81
2023/05/17 07:31:15;;;;;;;3.33;1.70;;;;;;;;;;5052335;28;20888;-80
2023/05/17 07:33:41;;;;;;;3.70;1.43;;;;;;;;;;5039831;28;20402;-81
2023/05/17 07:36:07;;;;;;;4.28;1.38;;;;;;;;;;5053167;28;20791;-81
2023/05/17 07:38:37;;;;;;;4.70;1.50;;;;;;;;;;5053158;28;20440;-81
2023/05/17 07:41:03;;;;;;;2.85;1.42;;;;;;;;;;5052784;28;20409;-82
2023/05/17 07:43:29;;;;;;;4.07;1.42;;;;;;;;;;5052669;28;20820;-81
2023/05/17 07:45:55;;;;;;;3.90;1.70;;;;;;;;;;5053106;28;20378;-81
2023/05/17 07:48:21;;;;;;;4.03;1.30;;;;;;;;;;5053098;28;20394;-80
2023/05/17 07:50:48;;;;;;;2.70;1.30;;;;;;;;;;5051563;28;20390;-80
2023/05/17 07:53:14;;;;;;;4.60;1.65;;;;;;;;;;5052985;28;20402;-80
2023/05/17 07:55:41;;;;;;;3.25;1.20;;;;;;;;;;5052810;28;20385;-80
2023/05/17 07:58:09;;;;;;;4.13;1.48;;;;;;;;;;5052707;28;20381;-81
2023/05/17 08:00:35;;;;;;;4.57;1.60;;;;;;;;;;5051272;28;20405;-80
2023/05/17 08:03:01;;;;;;;4.45;1.80;;;;;;;;;;5051584;28;20407;-81
2023/05/17 08:05:27;;;;;;;5.50;1.70;;;;;;;;;;5052415;28;20852;-81
2023/05/17 08:07:54;;;;;;;4.90;1.60;;;;;;;;;;5051516;28;20389;-82
2023/05/17 08:10:20;;;;;;;3.92;1.58;;;;;;;;;;5051910;28;20373;-82
2023/05/17 08:12:46;;;;;;;3.33;1.58;;;;;;;;;;5052389;28;20381;-81
2023/05/17 08:15:12;;;;;;;3.75;1.52;;;;;;;;;;5052204;28;20388;-81
2023/05/17 08:17:38;;;;;;;3.50;1.50;;;;;;;;;;5189856;23;20432;-82
2023/05/17 08:20:06;;;;;;;4.37;1.40;;;;;;;;;;5019600;28;20907;-81
2023/05/17 08:22:32;;;;;;;4.57;1.58;;;;;;;;;;5018990;28;20952;-82
2023/05/17 08:24:58;;;;;;;3.13;1.42;;;;;;;;;;5038363;28;20422;-81
2023/05/17 08:27:25;;;;;;;3.10;1.65;;;;;;;;;;5032486;28;20391;-81
2023/05/17 08:29:53;;;;;;;4.07;1.80;;;;;;;;;;5013957;28;20385;-81
2023/05/17 08:32:20;;;;;;;3.10;1.60;;;;;;;;;;5025340;28;20904;-81
2023/05/17 08:34:46;;;;;;;3.92;1.70;;;;;;;;;;5026599;28;20832;-82
2023/05/17 08:37:12;;;;;;;2.92;1.55;;;;;;;;;;5022317;28;20419;-79
2023/05/17 08:39:39;;;;;;;3.28;1.65;;;;;;;;;;5017521;28;20883;-79
2023/05/17 08:42:08;;;;;;;3.45;1.80;;;;;;;;;;5031937;28;20407;-79
2023/05/17 08:44:35;;;;;;;2.53;1.48;;;;;;;;;;5027599;28;20466;-79
2023/05/17 08:47:02;;;;;;;3.03;1.42;;;;;;;;;;5032111;28;20375;-80
2023/05/17 08:49:33;;;;;;;4.45;1.40;;;;;;;;;;5029949;28;20449;-79
2023/05/17 08:52:00;;;;;;;4.43;1.75;;;;;;;;;;5019480;28;20389;-81
2023/05/17 08:54:26;;;;;;;3.65;1.52;;;;;;;;;;5032147;28;20391;-83
2023/05/17 08:56:59;;;;;;;4.67;1.50;;;;;;;;;;5028190;28;20382;-81
2023/05/17 08:59:32;;;;;;;4.50;1.70;;;;;;;;;;5019615;28;20479;-80
2023/05/17 09:01:58;;;;;;;2.90;1.57;;;;;;;;;;5012163;28;20470;-81
2023/05/17 09:04:24;;;;;;;4.18;1.75;;;;;;;;;;5021209;28;20457;-80
2023/05/17 09:06:50;;;;;;;3.95;2.17;;;;;;;;;;5023189;28;20478;-81
2023/05/17 09:09:17;;;;;;;2.97;1.70;;;;;;;;;;5026219;28;20791;-81
2023/05/17 09:11:44;;;;;;;4.93;1.58;;;;;;;;;;5031884;28;20379;-80
2023/05/17 09:14:10;;;;;;;3.38;1.70;;;;;;;;;;5031790;28;20387;-80
2023/05/17 09:16:36;;;;;;;3.58;1.63;;;;;;;;;;5027441;28;20422;-80
2023/05/17 09:19:03;;;;;;;3.28;1.70;;;;;;;;;;5024975;28;20399;-81
2023/05/17 09:21:30;;;;;;;6.77;5.20;;;;;;;;;;5027488;28;20417;-80
2023/05/17 09:23:58;;;;;;;2.92;1.50;;;;;;;;;;5012022;28;20860;-81
2023/05/17 09:26:24;;;;;;;4.13;1.60;;;;;;;;;;5017322;28;20385;-81
2023/05/17 09:28:52;;;;;;;3.10;1.50;;;;;;;;;;5020477;28;20408;-81
2023/05/17 09:31:18;;;;;;;2.60;1.38;;;;;;;;;;5027977;28;20400;-82
2023/05/17 09:33:45;;;;;;;3.17;1.40;;;;;;;;;;5019961;28;20472;-81
2023/05/17 09:36:23;;;;;;;3.20;1.42;;;;;;;;;;5025572;28;20389;-81
2023/05/17 09:38:52;;;;;;;3.40;1.42;;;;;;;;;;5030195;28;20465;-81
2023/05/17 09:41:18;;;;;;;3.75;1.65;;;;;;;;;;5030524;28;20409;-81
2023/05/17 09:43:45;;;;;;;3.72;1.30;;;;;;;;;;5031655;28;20426;-82
2023/05/17 09:46:11;;;;;;;3.40;1.60;;;;;;;;;;5031529;28;20375;-81
2023/05/17 09:48:37;;;;;;;3.40;1.40;;;;;;;;;;5020980;28;20379;-80
2023/05/17 09:51:06;;;;;;;3.63;1.50;;;;;;;;;;5032294;28;20418;-82
2023/05/17 09:53:37;;;;;;;3.53;1.60;;;;;;;;;;5031494;28;20446;-83
2023/05/17 09:56:07;;;;;;;3.55;1.33;;;;;;;;;;5015539;28;20384;-80
2023/05/17 09:58:33;;;;;;;2.95;1.60;;;;;;;;;;5015451;28;20385;-83
2023/05/17 10:01:02;;;;;;;3.83;1.83;;;;;;;;;;5021409;28;20420;-82
2023/05/17 10:03:34;;;;;;;5.28;1.58;;;;;;;;;;5031436;28;20395;-82
2023/05/17 10:06:04;;;;;;;3.60;1.80;;;;;;;;;;5028416;28;20462;-81
2023/05/17 10:08:32;;;;;;;4.25;1.55;;;;;;;;;;5032961;28;20394;-83
2023/05/17 10:10:59;;;;;;;3.73;1.63;;;;;;;;;;5035104;28;20892;-81
2023/05/17 10:13:30;;;;;;;3.10;1.60;;;;;;;;;;5035092;28;20393;-82
2023/05/17 10:15:56;;;;;;;2.47;1.42;;;;;;;;;;5033334;28;20379;-82
2023/05/17 10:18:23;;;;;;;3.05;1.40;;;;;;;;;;5020282;28;20397;-83
2023/05/17 10:20:49;;;;;;;3.67;1.40;;;;;;;;;;5029003;28;20418;-82
2023/05/17 10:23:16;;;;;;;4.15;1.50;;;;;;;;;;5016234;28;20460;-82
2023/05/17 10:25:43;;;;;;;3.40;1.55;;;;;;;;;;5017386;28;20411;-82
2023/05/17 10:28:09;;;;;;;3.00;1.27;;;;;;;;;;5034376;28;20423;-83
2023/05/17 10:30:36;;;;;;;3.60;1.70;;;;;;;;;;5034573;28;20458;-83
2023/05/17 10:33:03;;;;;;;3.78;1.58;;;;;;;;;;5022096;28;20387;-83
2023/05/17 10:35:31;;;;;;;4.17;1.80;;;;;;;;;;5034426;28;20390;-84
2023/05/17 10:37:57;;;;;;;3.95;1.50;;;;;;;;;;5031192;28;20384;-81
2023/05/17 10:40:23;;;;;;;3.33;1.55;;;;;;;;;;5014807;28;20405;-82
2023/05/17 10:42:50;;;;;;;3.05;1.70;;;;;;;;;;5021070;28;20738;-81
2023/05/17 10:45:19;;;;;;;4.20;1.70;;;;;;;;;;5019984;28;20502;-80
2023/05/17 10:47:47;;;;;;;3.72;1.67;;;;;;;;;;5030958;28;20383;-80
2023/05/17 10:50:13;;;;;;;3.72;1.60;;;;;;;;;;5025905;28;20420;-81
2023/05/17 10:52:45;;;;;;;2.42;1.60;;;;;;;;;;5033010;28;20816;-81
2023/05/17 10:55:11;;;;;;;2.72;1.60;;;;;;;;;;5028149;28;20466;-81
2023/05/17 10:57:37;;;;;;;3.45;1.83;;;;;;;;;;5032950;28;20412;-81
2023/05/17 11:00:07;;;;;;;4.10;1.63;;;;;;;;;;5027357;28;20383;-81
2023/05/17 11:02:39;;;;;;;3.05;1.33;;;;;;;;;;5027614;28;20424;-81
2023/05/17 11:05:05;;;;;;;3.78;1.70;;;;;;;;;;5027102;28;20866;-80
2023/05/17 11:07:33;;;;;;;3.17;1.60;;;;;;;;;;5027194;28;20379;-81
2023/05/17 11:10:02;;;;;;;2.40;1.50;;;;;;;;;;5029439;28;20390;-81
2023/05/17 11:12:35;;;;;;;4.10;1.60;;;;;;;;;;5033917;28;20390;-81
2023/05/17 11:15:03;;;;;;;3.50;1.73;;;;;;;;;;5033531;28;20885;-81
2023/05/17 11:17:35;;;;;;;4.13;3.08;;;;;;;;;;5033504;28;20423;-81
2023/05/17 11:20:13;;;;;;;3.73;1.50;;;;;;;;;;5034012;28;20387;-80
2023/05/17 11:22:43;;;;;;;3.97;1.52;;;;;;;;;;5034108;28;20391;-81
2023/05/17 11:25:11;;;;;;;3.35;1.42;;;;;;;;;;5033720;28;20469;-81
2023/05/17 11:27:38;;;;;;;3.80;1.27;;;;;;;;;;5033540;28;20477;-81
2023/05/17 11:30:08;;;;;;;3.17;1.50;;;;;;;;;;5033797;28;20418;-81
2023/05/17 11:32:34;;;;;;;3.88;1.60;;;;;;;;;;5033832;28;20390;-81
2023/05/17 11:35:01;;;;;;;5.03;1.67;;;;;;;;;;5033360;28;20383;-81
2023/05/17 11:37:27;;;;;;;4.28;1.50;;;;;;;;;;5022797;28;20388;-81
2023/05/17 11:40:03;;;;;;;2.58;1.40;;;;;;;;;;5016292;28;20389;-81
2023/05/17 11:42:29;;;;;;;3.03;1.73;;;;;;;;;;5021499;28;20408;-80
2023/05/17 11:45:00;;;;;;;3.45;1.40;;;;;;;;;;5020951;28;20460;-81
2023/05/17 11:47:27;;;;;;;2.10;1.20;;;;;;;;;;5032035;28;20383;-81
2023/05/17 11:49:54;;;;;;;2.97;1.70;;;;;;;;;;5033078;28;20387;-81
2023/05/17 11:52:20;;;;;;;2.53;1.38;;;;;;;;;;5022614;28;20371;-80
2023/05/17 11:54:47;;;;;;;3.15;1.58;;;;;;;;;;5032974;28;20977;-81
2023/05/17 11:57:15;;;;;;;3.78;1.75;;;;;;;;;;5032779;28;20395;-80
2023/05/17 11:59:42;;;;;;;2.75;1.50;;;;;;;;;;5033447;28;20371;-80
2023/05/17 12:02:08;;;;;;;4.25;1.80;;;;;;;;;;5031311;28;20449;-81
2023/05/17 12:04:38;;;;;;;3.75;1.45;;;;;;;;;;5032740;28;20461;-80
2023/05/17 12:07:08;;;;;;;2.87;1.70;;;;;;;;;;5032471;28;20456;-80
2023/05/17 12:09:34;;;;;;;2.38;1.25;;;;;;;;;;5032137;28;20395;-81
2023/05/17 12:12:03;;;;;;;3.20;1.40;;;;;;;;;;5033230;28;20719;-82
2023/05/17 12:14:29;;;;;;;3.85;1.45;;;;;;;;;;5032796;28;20397;-82
2023/05/17 12:16:56;;;;;;;2.57;1.60;;;;;;;;;;5033042;28;20462;-82
2023/05/17 12:19:23;;;;;;;2.00;1.40;;;;;;;;;;5032330;28;20387;-81
2023/05/17 12:21:50;;;;;;;2.50;1.40;;;;;;;;;;5032491;28;20407;-81
2023/05/17 12:24:16;;;;;;;2.63;1.45;;;;;;;;;;5032588;28;20387;-84
2023/05/17 12:26:46;;;;;;;2.40;1.42;;;;;;;;;;5028084;28;20502;-82
2023/05/17 12:29:13;;;;;;;3.03;1.38;;;;;;;;;;5028803;28;20419;-82
2023/05/17 12:31:50;;;;;;;4.05;1.83;;;;;;;;;;5029105;28;21003;-81
2023/05/17 12:34:17;;;;;;;6.10;1.75;;;;;;;;;;5023905;28;20943;-81
2023/05/17 12:36:43;;;;;;;2.50;1.52;;;;;;;;;;5017360;28;20893;-81
2023/05/17 12:39:10;;;;;;;2.90;1.60;;;;;;;;;;5027653;28;20468;-81
2023/05/17 12:41:37;;;;;;;3.45;1.40;;;;;;;;;;5027665;28;20872;-82
2023/05/17 12:44:03;;;;;;;3.47;1.40;;;;;;;;;;5029665;28;20387;-82
2023/05/17 12:46:30;;;;;;;3.63;1.60;;;;;;;;;;5029713;28;20387;-81
2023/05/17 12:49:01;;;;;;;2.90;1.80;;;;;;;;;;5012940;28;20432;-81
2023/05/17 12:51:30;;;;;;;2.65;1.65;;;;;;;;;;5011893;28;20420;-81
2023/05/17 12:53:58;;;;;;;2.20;1.47;;;;;;;;;;5026331;28;20447;-81
2023/05/17 12:56:26;;;;;;;3.05;1.40;;;;;;;;;;5022094;28;20443;-82
2023/05/17 12:59:05;;;;;;;2.95;1.67;;;;;;;;;;5014558;28;20400;-82
2023/05/17 13:01:37;;;;;;;2.35;1.42;;;;;;;;;;5021989;28;20446;-82
2023/05/17 13:04:03;;;;;;;2.37;1.40;;;;;;;;;;5026072;28;20441;-81
2023/05/17 13:06:42;;;;;;;3.63;1.58;;;;;;;;;;5031163;28;20387;-80
2023/05/17 13:09:08;;;;;;;2.55;1.60;;;;;;;;;;5031808;28;20393;-82
2023/05/17 13:11:39;;;;;;;4.25;2.08;;;;;;;;;;5031803;28;20418;-84
2023/05/17 13:14:05;;;;;;;2.75;1.60;;;;;;;;;;5016714;28;20493;-83
2023/05/17 13:16:31;;;;;;;3.50;1.50;;;;;;;;;;5011758;28;20385;-82
2023/05/17 13:18:57;;;;;;;5.20;1.50;;;;;;;;;;5024126;28;20383;-83
2023/05/17 13:21:23;;;;;;;2.80;1.50;;;;;;;;;;5027814;28;20436;-83
2023/05/17 13:23:50;;;;;;;4.05;1.60;;;;;;;;;;5016228;28;20385;-84
2023/05/17 13:26:16;;;;;;;2.92;1.60;;;;;;;;;;5032980;28;20387;-81
2023/05/17 13:28:42;;;;;;;2.83;1.57;;;;;;;;;;5036340;28;20378;-83
2023/05/17 13:31:08;;;;;;;3.92;1.60;;;;;;;;;;5036032;28;20375;-83
2023/05/17 13:33:35;;;;;;;3.03;1.58;;;;;;;;;;5035663;28;20390;-83
2023/05/17 13:36:01;;;;;;;3.97;1.65;;;;;;;;;;5034131;28;20401;-82
2023/05/17 13:38:27;;;;;;;2.25;1.50;;;;;;;;;;5035210;28;20420;-82
2023/05/17 13:40:53;;;;;;;2.85;1.55;;;;;;;;;;5025181;28;20515;-82
2023/05/17 13:43:20;;;;;;;2.95;1.60;;;;;;;;;;5033766;28;20387;-82
2023/05/17 13:45:49;;;;;;;3.20;1.40;;;;;;;;;;5034071;28;20391;-83
2023/05/17 13:48:15;;;;;;;3.47;1.60;;;;;;;;;;5034082;28;20431;-82
2023/05/17 13:50:41;;;;;;;2.63;1.50;;;;;;;;;;5016150;28;20400;-82
2023/05/17 13:53:07;;;;;;;3.05;1.60;;;;;;;;;;5015797;28;20393;-82
2023/05/17 13:55:33;;;;;;;3.00;1.70;;;;;;;;;;5033607;28;20945;-86
2023/05/17 13:57:59;;;;;;;4.55;2.80;;;;;;;;;;5029975;28;20808;-86
2023/05/17 14:00:25;;;;;;;6.20;2.78;;;;;;;;;;5033220;28;20411;-86
2023/05/17 14:02:51;;;;;;;4.35;2.10;;;;;;;;;;5033639;28;20406;-85
2023/05/17 14:05:17;;;;;;;2.78;1.77;;;;;;;;;;5034861;28;20387;-85
2023/05/17 14:07:44;;;;;;;4.30;1.77;;;;;;;;;;5033706;28;20494;-85
2023/05/17 14:10:11;;;;;;;3.97;1.60;;;;;;;;;;5034569;28;20474;-84
2023/05/17 14:12:38;;;;;;;3.38;1.80;;;;;;;;;;5035216;28;20385;-84
2023/05/17 14:15:04;;;;;;;3.30;2.00;;;;;;;;;;5034919;28;20474;-85
2023/05/17 14:17:31;;;;;;;4.00;2.00;;;;;;;;;;5034746;28;20779;-84
2023/05/17 14:19:58;;;;;;;3.03;1.77;;;;;;;;;;5033708;28;20878;-84
2023/05/17 14:22:24;;;;;;;2.88;2.00;;;;;;;;;;5035037;28;20882;-85
2023/05/17 14:24:50;;;;;;;2.60;1.80;;;;;;;;;;5035002;28;20470;-84
2023/05/17 14:27:16;;;;;;;3.43;1.70;;;;;;;;;;5030127;28;20387;-86
2023/05/17 14:29:42;;;;;;;2.78;2.00;;;;;;;;;;5033472;28;20410;-85
2023/05/17 14:32:08;;;;;;;3.40;1.90;;;;;;;;;;5028876;28;20469;-85
2023/05/17 14:34:34;;;;;;;2.90;1.88;;;;;;;;;;5034556;28;20383;-85
2023/05/17 14:37:00;;;;;;;3.95;2.10;;;;;;;;;;5033377;28;20419;-85
2023/05/17 14:39:26;;;;;;;3.22;1.80;;;;;;;;;;5034877;28;20872;-85
2023/05/17 14:41:52;;;;;;;2.70;1.77;;;;;;;;;;5031315;28;20411;-85
2023/05/17 14:44:18;;;;;;;3.23;1.80;;;;;;;;;;5034646;28;20535;-86